Vliegveld raporten

 

EHGR - Gilze-Rijen Rnla, Netherlands
Distance from station: WZW 7km
Updated: 19-12-2018 16:00
Zwaar bewolkt
Zwaar bewolkt
 Wind van ZZW
Wind: ZZW 15 km/h
Temperatuur: 10°C
Wind Chill: 8°C
Dauwpunt: 7°C
Vochtigheid: 82%
Barometer: 1009 hPa
Clouds: Zwaar bewolkt
Visibility: 10 km
Cloud details: Meestal bewolkt 1128 m
Zwaar bewolkt 1250 m
2018/12/19 15:00 EHGR 191500Z AUTO 20008KT 160V240 9999 BKN037 OVC041 10/07 Q1009 BLU
EHEH - Eindhoven Rnlafb, Netherlands
Distance from station: OZO 30km
Updated: 19-12-2018 16:25
Zwaar bewolkt
Zwaar bewolkt
 Wind van Z
Wind: Z 11 km/h
Temperatuur: 9°C
Wind Chill: 7°C
Dauwpunt: 6°C
Vochtigheid: 82%
Barometer: 1010 hPa
Clouds: Zwaar bewolkt
Visibility: 10 km
Cloud details: Enkele wolken 518 m
Zwaar bewolkt 1280 m
2018/12/19 15:25 EHEH 191525Z AUTO 19006KT 150V220 9999 FEW017 OVC042 09/06 Q1010 BLU 20010KT 9999 SCT020 BKN025
EHVK - Volkel Rnlafb, Netherlands
Distance from station: O 48km
Updated: 19-12-2018 16:25
Zwaar bewolkt
Zwaar bewolkt
 Wind van Z
Wind: Z 15 km/h
Temperatuur: 9°C
Wind Chill: 7°C
Dauwpunt: 6°C
Vochtigheid: 82%
Barometer: 1010 hPa
Clouds: Zwaar bewolkt
Visibility: 10 km
Cloud details: Meestal bewolkt 579 m
Meestal bewolkt 671 m
Zwaar bewolkt 792 m
2018/12/19 15:25 EHVK 191525Z AUTO 18008KT 150V220 9999 BKN019 BKN022 OVC026 09/06 Q1010 WHT
 
EHWO - Woensdrecht Rnla, Netherlands
Distance from station: WZW 50km
Updated: 19-12-2018 16:25
Meestal bewolkt
Meestal bewolkt
 Wind van ZZW
Wind: ZZW 11 km/h
Temperatuur: 9°C
Wind Chill: 7°C
Dauwpunt: 6°C
Vochtigheid: 82%
Barometer: 1009 hPa
Clouds: Meestal bewolkt
Visibility: 10 km
Cloud details: Enkele wolken 640 m
Meestal bewolkt 853 m
Meestal bewolkt 1341 m
2018/12/19 15:25 EHWO 191525Z AUTO 21006KT 9999 FEW021 BKN028 BKN044 09/06 Q1009 BLU
EHRD - Rotterdam Airpor, Netherlands
Distance from station: NW 56km
Updated: 19-12-2018 16:25
Zwaar bewolkt
Zwaar bewolkt
 Wind van Z
Wind: Z 20 km/h
Temperatuur: 9°C
Wind Chill: 6°C
Clouds: Zwaar bewolkt
Visibility: 10 km
Cloud details: Gedeeltelijk bewolkt 884 m
Gedeeltelijk bewolkt 1006 m
Zwaar bewolkt 1250 m
2018/12/19 15:25 EHRD 191525Z AUTO 19011KT 170V230 9999 SCT029 SCT033 OVC041 09/
EHDL - Deelen Rnlafb, Netherlands
Distance from station: NO 80km
Updated: 19-12-2018 16:25
Zwaar bewolkt
Zwaar bewolkt
 Wind van Z
Wind: Z 13 km/h
Temperatuur: 9°C
Wind Chill: 7°C
Dauwpunt: 7°C
Vochtigheid: 87%
Barometer: 1010 hPa
Clouds: Zwaar bewolkt
Visibility: 10 km
Cloud details: Meestal bewolkt 579 m
Zwaar bewolkt 792 m
2018/12/19 15:25 EHDL 191525Z AUTO 18007KT 140V240 9999 BKN019 OVC026 09/07 Q1010 WHT
 
EHAM - Amsterdam/Schiph, Netherlands
Distance from station: N 83km
Updated: 19-12-2018 16:25
Enkele wolken
Enkele wolken
 Wind van Z
Wind: Z 20 km/h
Temperatuur: 8°C
Wind Chill: 4°C
Dauwpunt: 6°C
Vochtigheid: 87%
Barometer: 1008 hPa
Clouds: Enkele wolken
Visibility: 10 km
Cloud details: Enkele wolken 549 m
2018/12/19 15:25 EHAM 191525Z 19011KT 9999 FEW018 08/06 Q1008 NOSIG
EHBK - Zuid-Limburg/Bee, Netherlands
Distance from station: ZO 91km
Updated: 19-12-2018 16:25
Meestal bewolkt
Meestal bewolkt
 Wind van Z
Wind: Z 17 km/h
Temperatuur: 9°C
Wind Chill: 7°C
Dauwpunt: 6°C
Vochtigheid: 82%
Barometer: 1010 hPa
Clouds: Meestal bewolkt
Visibility: 10 km
Cloud details: Enkele wolken 853 m
Meestal bewolkt 1036 m
Meestal bewolkt 1158 m
2018/12/19 15:25 EHBK 191525Z AUTO 19009KT 9999 FEW028 BKN034 BKN038 09/06 Q1010 NOSIG
EHFS - Vlissingen, Netherlands
Distance from station: W 99km
Updated: 19-12-2018 15:55
Meestal bewolkt
Meestal bewolkt
 Wind van ZZW
Wind: ZZW 30 km/h
Temperatuur: 9°C
Wind Chill: 5°C
Dauwpunt: 6°C
Vochtigheid: 82%
Barometer: 1008 hPa
Clouds: Meestal bewolkt
Visibility: 10 km
Cloud details: Gedeeltelijk bewolkt 1036 m
Meestal bewolkt 1189 m
2018/12/19 14:55 EHFS 191455Z AUTO 21016KT 9999 SCT034/// BKN039/// 09/06 Q1008 W///H///
 
EHSC - Goeree Le Sea, Netherlands
Distance from station: WNW 100km
Updated: 19-12-2018 15:55

 Wind van ZZW
Wind: ZZW 44 km/h
Temperatuur: 9°C
Wind Chill: 4°C
Dauwpunt: 6°C
Vochtigheid: 82%
Barometer: 1007 hPa
Visibility: 10 km
2018/12/19 14:55 EHSC 191455Z AUTO 21024KT 9999 ///////// 09/06 Q1007 W08/H11
EBBL - Kleine-Brogel(Ba, Belgium
Distance from station: ZO 56km
Updated: 19-12-2018 16:15
Meestal bewolkt
Meestal bewolkt
 Wind van ZZW
Wind: ZZW 13 km/h
Temperatuur: 9°C
Wind Chill: 7°C
Dauwpunt: 6°C
Vochtigheid: 82%
Barometer: 1011 hPa
Clouds: Meestal bewolkt
Visibility: 10 km
Cloud details: Meestal bewolkt 518 m
Meestal bewolkt 1372 m
2018/12/19 15:15 EBBL 191515Z AUTO 20007KT 9999 BKN017/// BKN045/// 09/06 Q1011 WHT
EBAW - Antwerp/Deurne, Belgium
Distance from station: ZW 57km
Updated: 19-12-2018 16:20
Enkele wolken
Enkele wolken
 Wind van ZZW
Wind: ZZW 11 km/h
Temperatuur: 9°C
Wind Chill: 7°C
Dauwpunt: 6°C
Vochtigheid: 82%
Barometer: 1010 hPa
Clouds: Enkele wolken
Visibility: 10 km
Cloud details: Enkele wolken 549 m
2018/12/19 15:20 EBAW 191520Z 20006KT 9999 FEW018 09/06 Q1010 NOSIG
 
EBDT - Schaffen, Belgium
Distance from station: Z 63km
Updated: 19-12-2018 15:55
Zwaar bewolkt
Zwaar bewolkt
 Wind van Z
Wind: Z 15 km/h
Temperatuur: 9°C
Wind Chill: 7°C
Dauwpunt: 7°C
Vochtigheid: 87%
Barometer: 1010 hPa
Clouds: Zwaar bewolkt
Visibility: 10 km
Cloud details: Meestal bewolkt 1067 m
Zwaar bewolkt 1433 m
2018/12/19 14:55 EBDT 191455Z AUTO 19008KT 9999 BKN035/// OVC047/// 09/07 Q1010 BLU
EBBR - Brussels Nationa, Belgium
Distance from station: ZZW 83km
Updated: 19-12-2018 16:20
Enkele wolken
Enkele wolken
 Wind van ZZW
Wind: ZZW 9 km/h
Temperatuur: 8°C
Wind Chill: 6°C
Dauwpunt: 5°C
Vochtigheid: 82%
Barometer: 1010 hPa
Clouds: Enkele wolken
Visibility: 10 km
Cloud details: Enkele wolken 610 m
2018/12/19 15:20 EBBR 191520Z 20005KT 9999 FEW020 08/05 Q1010 NOSIG
EBBE - Beauvechain (baf, Belgium
Distance from station: Z 94km
Updated: 19-12-2018 16:22
Gedeeltelijk bewolkt
Gedeeltelijk bewolkt
 Wind van ZZW
Wind: ZZW 15 km/h
Temperatuur: 8°C
Wind Chill: 5°C
Dauwpunt: 6°C
Vochtigheid: 87%
Barometer: 1010 hPa
Clouds: Gedeeltelijk bewolkt
Visibility: 10 km
Cloud details: Enkele wolken 427 m
Gedeeltelijk bewolkt 762 m
2018/12/19 15:22 EBBE 191522Z 20008KT 9999 FEW014 SCT025 08/06 Q1010 BLU BLU TEMPO WHT
 
EDLV - Niederrhein, Germany
Distance from station: O 79km
Updated: 19-12-2018 16:20
Meestal bewolkt
Meestal bewolkt
 Wind van Z
Wind: Z 13 km/h
Temperatuur: 9°C
Wind Chill: 7°C
Dauwpunt: 6°C
Vochtigheid: 82%
Barometer: 1010 hPa
Clouds: Meestal bewolkt
Visibility: 10 km
Cloud details: Meestal bewolkt 823 m
2018/12/19 15:20 EDLV 191520Z 19007KT 9999 BKN027 09/06 Q1010
ETNG - Geilenkirchen(Na, Germany
Distance from station: ZO 99km
Updated: 19-12-2018 15:50
Lichte regen, Showers, Meestal bewolkt
Lichte regen, Showers, Meestal bewolkt
 Wind van ZW
Wind: ZW 11 km/h
Temperatuur: 10°C
Wind Chill: 8°C
Dauwpunt: 5°C
Vochtigheid: 71%
Barometer: 1011 hPa
Overzicht: Lichte regen, Showers
Clouds: Meestal bewolkt
Visibility: 10 km
Cloud details: Enkele wolken 396 m
Meestal bewolkt 762 m
2018/12/19 14:50 ETNG 191450Z 22006KT 9999 -SHRA FEW013 BKN025 10/05 Q1011 TEMPO -SHRA